sensor_id;sensor_type;location;lat;lon;timestamp;temperature;humidity
75217;HTU21D;63800;51.972;5.682;2023-07-13T00:00:33;16.59;77.96
75217;HTU21D;63800;51.972;5.682;2023-07-13T00:02:59;16.66;77.82
75217;HTU21D;63800;51.972;5.682;2023-07-13T00:05:24;16.45;78.59
75217;HTU21D;63800;51.972;5.682;2023-07-13T00:07:50;16.36;78.72
75217;HTU21D;63800;51.972;5.682;2023-07-13T00:10:17;16.26;79.19
75217;HTU21D;63800;51.972;5.682;2023-07-13T00:12:43;16.56;78.08
75217;HTU21D;63800;51.972;5.682;2023-07-13T00:15:15;16.29;79.16
75217;HTU21D;63800;51.972;5.682;2023-07-13T00:17:42;16.39;78.85
75217;HTU21D;63800;51.972;5.682;2023-07-13T00:20:10;16.48;78.37
75217;HTU21D;63800;51.972;5.682;2023-07-13T00:22:35;16.43;78.72
75217;HTU21D;63800;51.972;5.682;2023-07-13T00:25:01;16.35;79.32
75217;HTU21D;63800;51.972;5.682;2023-07-13T00:27:26;16.26;80.22
75217;HTU21D;63800;51.972;5.682;2023-07-13T00:29:52;16.42;78.75
75217;HTU21D;63800;51.972;5.682;2023-07-13T00:32:18;16.65;78.05
75217;HTU21D;63800;51.972;5.682;2023-07-13T00:34:44;16.72;78.42
75217;HTU21D;63800;51.972;5.682;2023-07-13T00:37:09;16.52;78.02
75217;HTU21D;63800;51.972;5.682;2023-07-13T00:39:35;16.46;78.79
75217;HTU21D;63800;51.972;5.682;2023-07-13T00:42:02;16.05;80.29
75217;HTU21D;63800;51.972;5.682;2023-07-13T00:44:28;16.07;80.13
75217;HTU21D;63800;51.972;5.682;2023-07-13T00:46:53;16.08;80.31
75217;HTU21D;63800;51.972;5.682;2023-07-13T00:49:23;16.22;79.68
75217;HTU21D;63800;51.972;5.682;2023-07-13T00:51:57;16.20;79.72
75217;HTU21D;63800;51.972;5.682;2023-07-13T00:54:32;16.36;79.08
75217;HTU21D;63800;51.972;5.682;2023-07-13T00:57:03;15.91;80.81
75217;HTU21D;63800;51.972;5.682;2023-07-13T00:59:29;16.32;79.29
75217;HTU21D;63800;51.972;5.682;2023-07-13T01:01:56;15.88;81.43
75217;HTU21D;63800;51.972;5.682;2023-07-13T01:04:27;15.87;81.34
75217;HTU21D;63800;51.972;5.682;2023-07-13T01:06:53;15.81;81.59
75217;HTU21D;63800;51.972;5.682;2023-07-13T01:09:19;15.82;81.50
75217;HTU21D;63800;51.972;5.682;2023-07-13T01:11:45;16.00;81.33
75217;HTU21D;63800;51.972;5.682;2023-07-13T01:14:10;15.90;81.38
75217;HTU21D;63800;51.972;5.682;2023-07-13T01:16:37;15.77;81.64
75217;HTU21D;63800;51.972;5.682;2023-07-13T01:19:24;15.72;82.11
75217;HTU21D;63800;51.972;5.682;2023-07-13T01:21:55;15.80;82.23
75217;HTU21D;63800;51.972;5.682;2023-07-13T01:24:20;15.81;81.94
75217;HTU21D;63800;51.972;5.682;2023-07-13T01:26:46;15.71;82.09
75217;HTU21D;63800;51.972;5.682;2023-07-13T01:29:11;15.75;82.17
75217;HTU21D;63800;51.972;5.682;2023-07-13T01:31:37;15.74;82.10
75217;HTU21D;63800;51.972;5.682;2023-07-13T01:34:02;15.59;82.87
75217;HTU21D;63800;51.972;5.682;2023-07-13T01:36:28;15.77;81.81
75217;HTU21D;63800;51.972;5.682;2023-07-13T01:38:53;15.70;82.51
75217;HTU21D;63800;51.972;5.682;2023-07-13T01:41:18;15.72;82.10
75217;HTU21D;63800;51.972;5.682;2023-07-13T01:43:44;15.57;82.78
75217;HTU21D;63800;51.972;5.682;2023-07-13T01:46:09;15.33;83.91
75217;HTU21D;63800;51.972;5.682;2023-07-13T01:48:35;15.27;84.15
75217;HTU21D;63800;51.972;5.682;2023-07-13T01:51:00;15.36;84.31
75217;HTU21D;63800;51.972;5.682;2023-07-13T01:53:25;15.40;83.84
75217;HTU21D;63800;51.972;5.682;2023-07-13T01:55:52;15.26;84.61
75217;HTU21D;63800;51.972;5.682;2023-07-13T01:58:18;15.39;84.00
75217;HTU21D;63800;51.972;5.682;2023-07-13T02:00:43;15.66;83.07
75217;HTU21D;63800;51.972;5.682;2023-07-13T02:03:08;15.61;83.17
75217;HTU21D;63800;51.972;5.682;2023-07-13T02:05:34;15.52;83.22
75217;HTU21D;63800;51.972;5.682;2023-07-13T02:08:00;15.88;81.43
75217;HTU21D;63800;51.972;5.682;2023-07-13T02:10:25;15.60;82.97
75217;HTU21D;63800;51.972;5.682;2023-07-13T02:12:51;15.70;82.49
75217;HTU21D;63800;51.972;5.682;2023-07-13T02:15:17;15.67;82.87
75217;HTU21D;63800;51.972;5.682;2023-07-13T02:17:42;15.53;83.29
75217;HTU21D;63800;51.972;5.682;2023-07-13T02:20:08;15.27;84.59
75217;HTU21D;63800;51.972;5.682;2023-07-13T02:22:34;15.17;85.07
75217;HTU21D;63800;51.972;5.682;2023-07-13T02:25:00;15.28;84.81
75217;HTU21D;63800;51.972;5.682;2023-07-13T02:27:26;15.38;84.75
75217;HTU21D;63800;51.972;5.682;2023-07-13T02:29:51;15.22;85.13
75217;HTU21D;63800;51.972;5.682;2023-07-13T02:32:17;15.36;84.34
75217;HTU21D;63800;51.972;5.682;2023-07-13T02:34:43;15.29;85.54
75217;HTU21D;63800;51.972;5.682;2023-07-13T02:37:08;15.38;84.85
75217;HTU21D;63800;51.972;5.682;2023-07-13T02:39:34;15.36;85.09
75217;HTU21D;63800;51.972;5.682;2023-07-13T02:41:59;15.58;83.75
75217;HTU21D;63800;51.972;5.682;2023-07-13T02:44:26;15.40;84.73
75217;HTU21D;63800;51.972;5.682;2023-07-13T02:46:51;15.19;85.96
75217;HTU21D;63800;51.972;5.682;2023-07-13T02:49:17;15.03;86.64
75217;HTU21D;63800;51.972;5.682;2023-07-13T02:51:42;14.97;87.38
75217;HTU21D;63800;51.972;5.682;2023-07-13T02:54:09;15.02;87.25
75217;HTU21D;63800;51.972;5.682;2023-07-13T02:56:35;14.89;87.86
75217;HTU21D;63800;51.972;5.682;2023-07-13T02:59:00;15.01;87.19
75217;HTU21D;63800;51.972;5.682;2023-07-13T03:01:26;14.71;89.68
75217;HTU21D;63800;51.972;5.682;2023-07-13T03:03:52;14.66;89.87
75217;HTU21D;63800;51.972;5.682;2023-07-13T03:06:18;14.56;90.32
75217;HTU21D;63800;51.972;5.682;2023-07-13T03:08:44;14.73;89.59
75217;HTU21D;63800;51.972;5.682;2023-07-13T03:11:12;14.60;90.30
75217;HTU21D;63800;51.972;5.682;2023-07-13T03:13:40;14.54;90.76
75217;HTU21D;63800;51.972;5.682;2023-07-13T03:16:06;14.77;89.85
75217;HTU21D;63800;51.972;5.682;2023-07-13T03:18:32;14.84;89.68
75217;HTU21D;63800;51.972;5.682;2023-07-13T03:20:58;14.88;89.54
75217;HTU21D;63800;51.972;5.682;2023-07-13T03:23:24;14.67;90.48
75217;HTU21D;63800;51.972;5.682;2023-07-13T03:25:50;14.51;91.60
75217;HTU21D;63800;51.972;5.682;2023-07-13T03:28:16;14.35;92.79
75217;HTU21D;63800;51.972;5.682;2023-07-13T03:30:42;14.34;92.92
75217;HTU21D;63800;51.972;5.682;2023-07-13T03:33:08;14.33;93.23
75217;HTU21D;63800;51.972;5.682;2023-07-13T03:35:34;14.30;93.75
75217;HTU21D;63800;51.972;5.682;2023-07-13T03:38:00;14.42;93.46
75217;HTU21D;63800;51.972;5.682;2023-07-13T03:40:27;14.34;93.60
75217;HTU21D;63800;51.972;5.682;2023-07-13T03:42:53;14.59;92.24
75217;HTU21D;63800;51.972;5.682;2023-07-13T03:45:19;14.64;92.24
75217;HTU21D;63800;51.972;5.682;2023-07-13T03:47:44;14.75;91.80
75217;HTU21D;63800;51.972;5.682;2023-07-13T03:50:10;14.75;91.79
75217;HTU21D;63800;51.972;5.682;2023-07-13T03:52:36;14.67;92.17
75217;HTU21D;63800;51.972;5.682;2023-07-13T03:55:02;14.44;93.83
75217;HTU21D;63800;51.972;5.682;2023-07-13T03:57:27;14.44;93.40
75217;HTU21D;63800;51.972;5.682;2023-07-13T03:59:52;14.54;93.43
75217;HTU21D;63800;51.972;5.682;2023-07-13T04:02:18;14.47;93.71
75217;HTU21D;63800;51.972;5.682;2023-07-13T04:04:44;14.79;91.27
75217;HTU21D;63800;51.972;5.682;2023-07-13T04:07:09;14.58;92.70
75217;HTU21D;63800;51.972;5.682;2023-07-13T04:09:35;14.54;93.52
75217;HTU21D;63800;51.972;5.682;2023-07-13T04:12:01;14.56;93.36
75217;HTU21D;63800;51.972;5.682;2023-07-13T04:14:26;14.50;94.17
75217;HTU21D;63800;51.972;5.682;2023-07-13T04:16:52;14.47;94.19
75217;HTU21D;63800;51.972;5.682;2023-07-13T04:19:19;14.62;93.30
75217;HTU21D;63800;51.972;5.682;2023-07-13T04:21:45;14.42;94.70
75217;HTU21D;63800;51.972;5.682;2023-07-13T04:24:10;14.39;95.32
75217;HTU21D;63800;51.972;5.682;2023-07-13T04:26:37;14.48;94.59
75217;HTU21D;63800;51.972;5.682;2023-07-13T04:29:03;14.28;96.18
75217;HTU21D;63800;51.972;5.682;2023-07-13T04:31:30;14.39;95.72
75217;HTU21D;63800;51.972;5.682;2023-07-13T04:33:55;14.42;95.29
75217;HTU21D;63800;51.972;5.682;2023-07-13T04:36:21;14.49;95.10
75217;HTU21D;63800;51.972;5.682;2023-07-13T04:38:46;14.36;96.34
75217;HTU21D;63800;51.972;5.682;2023-07-13T04:41:13;14.55;95.07
75217;HTU21D;63800;51.972;5.682;2023-07-13T04:43:39;14.51;95.78
75217;HTU21D;63800;51.972;5.682;2023-07-13T04:46:07;14.43;96.12
75217;HTU21D;63800;51.972;5.682;2023-07-13T04:48:33;14.51;95.63
75217;HTU21D;63800;51.972;5.682;2023-07-13T04:50:59;14.45;96.20
75217;HTU21D;63800;51.972;5.682;2023-07-13T04:53:25;14.59;95.21
75217;HTU21D;63800;51.972;5.682;2023-07-13T04:55:51;14.49;96.75
75217;HTU21D;63800;51.972;5.682;2023-07-13T04:58:17;14.74;94.46
75217;HTU21D;63800;51.972;5.682;2023-07-13T05:00:43;14.66;95.34
75217;HTU21D;63800;51.972;5.682;2023-07-13T05:03:09;14.85;94.17
75217;HTU21D;63800;51.972;5.682;2023-07-13T05:05:35;14.78;94.50
75217;HTU21D;63800;51.972;5.682;2023-07-13T05:08:00;14.85;94.56
75217;HTU21D;63800;51.972;5.682;2023-07-13T05:10:26;14.79;95.40
75217;HTU21D;63800;51.972;5.682;2023-07-13T05:12:51;14.79;96.26
75217;HTU21D;63800;51.972;5.682;2023-07-13T05:15:17;14.82;95.65
75217;HTU21D;63800;51.972;5.682;2023-07-13T05:17:49;14.99;95.21
75217;HTU21D;63800;51.972;5.682;2023-07-13T05:20:16;14.73;96.39
75217;HTU21D;63800;51.972;5.682;2023-07-13T05:22:42;14.95;95.55
75217;HTU21D;63800;51.972;5.682;2023-07-13T05:25:08;15.14;94.75
75217;HTU21D;63800;51.972;5.682;2023-07-13T05:27:34;15.16;94.62
75217;HTU21D;63800;51.972;5.682;2023-07-13T05:30:01;15.18;95.08
75217;HTU21D;63800;51.972;5.682;2023-07-13T05:32:26;15.46;94.17
75217;HTU21D;63800;51.972;5.682;2023-07-13T05:34:52;15.28;94.72
75217;HTU21D;63800;51.972;5.682;2023-07-13T05:37:18;15.51;93.27
75217;HTU21D;63800;51.972;5.682;2023-07-13T05:39:43;15.52;93.85
75217;HTU21D;63800;51.972;5.682;2023-07-13T05:42:09;15.36;95.27
75217;HTU21D;63800;51.972;5.682;2023-07-13T05:44:34;15.55;94.64
75217;HTU21D;63800;51.972;5.682;2023-07-13T05:47:00;15.53;93.98
75217;HTU21D;63800;51.972;5.682;2023-07-13T05:49:25;15.42;94.27
75217;HTU21D;63800;51.972;5.682;2023-07-13T05:51:51;15.55;94.55
75217;HTU21D;63800;51.972;5.682;2023-07-13T05:54:16;15.74;93.37
75217;HTU21D;63800;51.972;5.682;2023-07-13T05:56:42;15.95;92.11
75217;HTU21D;63800;51.972;5.682;2023-07-13T05:59:07;15.97;92.55
75217;HTU21D;63800;51.972;5.682;2023-07-13T06:01:33;15.84;93.13
75217;HTU21D;63800;51.972;5.682;2023-07-13T06:03:58;15.98;92.83
75217;HTU21D;63800;51.972;5.682;2023-07-13T06:06:24;16.02;93.02
75217;HTU21D;63800;51.972;5.682;2023-07-13T06:08:49;15.77;95.46
75217;HTU21D;63800;51.972;5.682;2023-07-13T06:11:18;15.71;97.52
75217;HTU21D;63800;51.972;5.682;2023-07-13T06:13:44;15.86;96.12
75217;HTU21D;63800;51.972;5.682;2023-07-13T06:16:10;16.12;94.78
75217;HTU21D;63800;51.972;5.682;2023-07-13T06:18:37;16.26;93.72
75217;HTU21D;63800;51.972;5.682;2023-07-13T06:21:08;16.25;94.07
75217;HTU21D;63800;51.972;5.682;2023-07-13T06:23:34;16.24;94.50
75217;HTU21D;63800;51.972;5.682;2023-07-13T06:26:00;16.13;95.20
75217;HTU21D;63800;51.972;5.682;2023-07-13T06:28:25;16.22;94.88
75217;HTU21D;63800;51.972;5.682;2023-07-13T06:30:50;16.37;93.78
75217;HTU21D;63800;51.972;5.682;2023-07-13T06:33:16;16.42;93.19
75217;HTU21D;63800;51.972;5.682;2023-07-13T06:35:42;16.47;93.85
75217;HTU21D;63800;51.972;5.682;2023-07-13T06:38:08;16.66;92.73
75217;HTU21D;63800;51.972;5.682;2023-07-13T06:40:33;16.63;93.46
75217;HTU21D;63800;51.972;5.682;2023-07-13T06:42:59;16.72;93.08
75217;HTU21D;63800;51.972;5.682;2023-07-13T06:45:24;16.87;91.93
75217;HTU21D;63800;51.972;5.682;2023-07-13T06:47:49;16.75;93.13
75217;HTU21D;63800;51.972;5.682;2023-07-13T06:50:15;16.82;92.62
75217;HTU21D;63800;51.972;5.682;2023-07-13T06:52:41;16.96;91.21
75217;HTU21D;63800;51.972;5.682;2023-07-13T06:55:06;17.07;90.81
75217;HTU21D;63800;51.972;5.682;2023-07-13T06:57:32;17.08;90.01
75217;HTU21D;63800;51.972;5.682;2023-07-13T06:59:57;17.17;89.64
75217;HTU21D;63800;51.972;5.682;2023-07-13T07:02:23;17.19;90.12
75217;HTU21D;63800;51.972;5.682;2023-07-13T07:04:48;17.09;90.86
75217;HTU21D;63800;51.972;5.682;2023-07-13T07:07:14;17.20;89.66
75217;HTU21D;63800;51.972;5.682;2023-07-13T07:09:40;16.96;90.79
75217;HTU21D;63800;51.972;5.682;2023-07-13T07:12:05;17.02;90.97
75217;HTU21D;63800;51.972;5.682;2023-07-13T07:14:31;17.13;90.15
75217;HTU21D;63800;51.972;5.682;2023-07-13T07:16:57;17.18;90.06
75217;HTU21D;63800;51.972;5.682;2023-07-13T07:19:23;17.10;90.40
75217;HTU21D;63800;51.972;5.682;2023-07-13T07:21:49;17.06;90.18
75217;HTU21D;63800;51.972;5.682;2023-07-13T07:24:14;17.21;89.15
75217;HTU21D;63800;51.972;5.682;2023-07-13T07:26:41;17.09;90.24
75217;HTU21D;63800;51.972;5.682;2023-07-13T07:29:06;17.09;90.37
75217;HTU21D;63800;51.972;5.682;2023-07-13T07:31:32;17.11;89.60
75217;HTU21D;63800;51.972;5.682;2023-07-13T07:33:57;17.18;90.03
75217;HTU21D;63800;51.972;5.682;2023-07-13T07:36:22;17.20;89.19
75217;HTU21D;63800;51.972;5.682;2023-07-13T07:38:48;17.48;88.19
75217;HTU21D;63800;51.972;5.682;2023-07-13T07:41:13;17.45;88.47
75217;HTU21D;63800;51.972;5.682;2023-07-13T07:43:39;17.47;88.40
75217;HTU21D;63800;51.972;5.682;2023-07-13T07:46:05;17.67;87.45
75217;HTU21D;63800;51.972;5.682;2023-07-13T07:48:31;17.35;87.67
75217;HTU21D;63800;51.972;5.682;2023-07-13T07:50:56;17.61;87.30
75217;HTU21D;63800;51.972;5.682;2023-07-13T07:53:22;17.76;86.29
75217;HTU21D;63800;51.972;5.682;2023-07-13T07:55:47;17.94;84.91
75217;HTU21D;63800;51.972;5.682;2023-07-13T07:58:13;18.27;84.02
75217;HTU21D;63800;51.972;5.682;2023-07-13T08:00:38;17.97;84.93
75217;HTU21D;63800;51.972;5.682;2023-07-13T08:03:04;18.05;84.31
75217;HTU21D;63800;51.972;5.682;2023-07-13T08:05:29;17.89;84.30
75217;HTU21D;63800;51.972;5.682;2023-07-13T08:07:55;18.00;84.16
75217;HTU21D;63800;51.972;5.682;2023-07-13T08:10:20;18.27;83.38
75217;HTU21D;63800;51.972;5.682;2023-07-13T08:12:46;18.22;83.50
75217;HTU21D;63800;51.972;5.682;2023-07-13T08:15:18;18.32;83.16
75217;HTU21D;63800;51.972;5.682;2023-07-13T08:17:46;18.47;83.10
75217;HTU21D;63800;51.972;5.682;2023-07-13T08:20:11;18.51;82.72
75217;HTU21D;63800;51.972;5.682;2023-07-13T08:22:37;18.58;82.03
75217;HTU21D;63800;51.972;5.682;2023-07-13T08:25:02;18.56;82.33
75217;HTU21D;63800;51.972;5.682;2023-07-13T08:27:29;18.87;81.62
75217;HTU21D;63800;51.972;5.682;2023-07-13T08:29:54;19.01;80.36
75217;HTU21D;63800;51.972;5.682;2023-07-13T08:32:21;18.82;80.95
75217;HTU21D;63800;51.972;5.682;2023-07-13T08:34:47;18.37;81.64
75217;HTU21D;63800;51.972;5.682;2023-07-13T08:37:13;18.39;79.66
75217;HTU21D;63800;51.972;5.682;2023-07-13T08:39:39;18.56;79.46
75217;HTU21D;63800;51.972;5.682;2023-07-13T08:47:28;18.56;77.02
75217;HTU21D;63800;51.972;5.682;2023-07-13T08:49:55;18.82;74.80
75217;HTU21D;63800;51.972;5.682;2023-07-13T08:52:37;19.16;73.82
75217;HTU21D;63800;51.972;5.682;2023-07-13T08:55:12;19.13;72.99
75217;HTU21D;63800;51.972;5.682;2023-07-13T08:57:39;19.30;73.62
75217;HTU21D;63800;51.972;5.682;2023-07-13T09:00:09;19.54;72.13
75217;HTU21D;63800;51.972;5.682;2023-07-13T09:05:17;19.37;71.80
75217;HTU21D;63800;51.972;5.682;2023-07-13T09:16:00;19.07;75.61
75217;HTU21D;63800;51.972;5.682;2023-07-13T09:21:02;18.79;77.17
75217;HTU21D;63800;51.972;5.682;2023-07-13T09:23:30;18.76;78.00
75217;HTU21D;63800;51.972;5.682;2023-07-13T09:26:04;18.66;80.29
75217;HTU21D;63800;51.972;5.682;2023-07-13T09:28:40;18.54;79.66
75217;HTU21D;63800;51.972;5.682;2023-07-13T09:31:31;18.21;83.31
75217;HTU21D;63800;51.972;5.682;2023-07-13T09:33:59;18.14;84.77
75217;HTU21D;63800;51.972;5.682;2023-07-13T09:36:32;18.49;85.53
75217;HTU21D;63800;51.972;5.682;2023-07-13T09:44:38;18.24;84.93
75217;HTU21D;63800;51.972;5.682;2023-07-13T09:47:16;18.18;84.79
75217;HTU21D;63800;51.972;5.682;2023-07-13T09:49:42;18.43;82.87
75217;HTU21D;63800;51.972;5.682;2023-07-13T09:52:13;18.86;82.21
75217;HTU21D;63800;51.972;5.682;2023-07-13T09:54:39;19.03;80.82
75217;HTU21D;63800;51.972;5.682;2023-07-13T09:57:16;19.10;79.37
75217;HTU21D;63800;51.972;5.682;2023-07-13T09:59:52;19.38;76.61
75217;HTU21D;63800;51.972;5.682;2023-07-13T10:02:30;19.42;75.69
75217;HTU21D;63800;51.972;5.682;2023-07-13T10:05:00;19.87;75.08
75217;HTU21D;63800;51.972;5.682;2023-07-13T10:07:26;20.03;73.93
75217;HTU21D;63800;51.972;5.682;2023-07-13T10:10:01;20.21;71.67
75217;HTU21D;63800;51.972;5.682;2023-07-13T10:12:29;20.29;70.98
75217;HTU21D;63800;51.972;5.682;2023-07-13T10:14:58;19.92;72.31
75217;HTU21D;63800;51.972;5.682;2023-07-13T10:17:31;19.40;75.07
75217;HTU21D;63800;51.972;5.682;2023-07-13T10:20:05;19.11;76.48
75217;HTU21D;63800;51.972;5.682;2023-07-13T10:22:56;18.99;79.48
75217;HTU21D;63800;51.972;5.682;2023-07-13T10:25:26;19.18;80.01
75217;HTU21D;63800;51.972;5.682;2023-07-13T10:27:54;19.20;78.58
75217;HTU21D;63800;51.972;5.682;2023-07-13T10:30:28;19.08;81.63
75217;HTU21D;63800;51.972;5.682;2023-07-13T10:32:57;19.38;79.06
75217;HTU21D;63800;51.972;5.682;2023-07-13T10:35:23;20.10;77.84
75217;HTU21D;63800;51.972;5.682;2023-07-13T10:37:53;20.88;73.86
75217;HTU21D;63800;51.972;5.682;2023-07-13T10:40:28;21.38;71.10
75217;HTU21D;63800;51.972;5.682;2023-07-13T10:42:57;20.73;70.39
75217;HTU21D;63800;51.972;5.682;2023-07-13T10:45:23;20.79;70.04
75217;HTU21D;63800;51.972;5.682;2023-07-13T10:47:51;20.74;69.27
75217;HTU21D;63800;51.972;5.682;2023-07-13T10:50:28;21.28;64.99
75217;HTU21D;63800;51.972;5.682;2023-07-13T10:53:01;21.29;62.77
75217;HTU21D;63800;51.972;5.682;2023-07-13T10:55:40;21.46;62.72
75217;HTU21D;63800;51.972;5.682;2023-07-13T10:58:21;22.19;61.32
75217;HTU21D;63800;51.972;5.682;2023-07-13T11:03:22;21.31;64.24
75217;HTU21D;63800;51.972;5.682;2023-07-13T11:05:50;21.10;66.39
75217;HTU21D;63800;51.972;5.682;2023-07-13T11:08:32;21.11;69.08
75217;HTU21D;63800;51.972;5.682;2023-07-13T11:10:58;22.03;62.66
75217;HTU21D;63800;51.972;5.682;2023-07-13T11:16:43;21.39;62.66
75217;HTU21D;63800;51.972;5.682;2023-07-13T11:36:03;22.23;60.67
75217;HTU21D;63800;51.972;5.682;2023-07-13T11:38:36;22.94;59.32
75217;HTU21D;63800;51.972;5.682;2023-07-13T11:41:05;22.44;60.59
75217;HTU21D;63800;51.972;5.682;2023-07-13T11:43:32;21.61;63.12
75217;HTU21D;63800;51.972;5.682;2023-07-13T11:46:15;21.43;64.20
75217;HTU21D;63800;51.972;5.682;2023-07-13T11:48:42;21.51;64.08
75217;HTU21D;63800;51.972;5.682;2023-07-13T11:51:19;21.28;65.37
75217;HTU21D;63800;51.972;5.682;2023-07-13T11:53:48;21.17;65.77
75217;HTU21D;63800;51.972;5.682;2023-07-13T11:56:14;21.49;65.33
75217;HTU21D;63800;51.972;5.682;2023-07-13T11:58:40;21.80;64.28
75217;HTU21D;63800;51.972;5.682;2023-07-13T12:01:10;21.70;61.11
75217;HTU21D;63800;51.972;5.682;2023-07-13T12:03:39;22.55;58.90
75217;HTU21D;63800;51.972;5.682;2023-07-13T12:06:25;22.99;57.68
75217;HTU21D;63800;51.972;5.682;2023-07-13T12:08:51;23.20;56.96
75217;HTU21D;63800;51.972;5.682;2023-07-13T12:11:18;23.22;57.45
75217;HTU21D;63800;51.972;5.682;2023-07-13T12:13:45;23.14;57.43
75217;HTU21D;63800;51.972;5.682;2023-07-13T12:16:22;23.42;55.53
75217;HTU21D;63800;51.972;5.682;2023-07-13T12:18:52;23.85;55.32
75217;HTU21D;63800;51.972;5.682;2023-07-13T12:21:19;23.21;57.16
75217;HTU21D;63800;51.972;5.682;2023-07-13T12:23:48;22.72;59.82
75217;HTU21D;63800;51.972;5.682;2023-07-13T12:26:16;22.65;59.40
75217;HTU21D;63800;51.972;5.682;2023-07-13T12:28:52;22.73;57.19
75217;HTU21D;63800;51.972;5.682;2023-07-13T12:31:42;22.22;58.95
75217;HTU21D;63800;51.972;5.682;2023-07-13T12:34:14;23.00;56.70
75217;HTU21D;63800;51.972;5.682;2023-07-13T12:36:51;24.26;54.46
75217;HTU21D;63800;51.972;5.682;2023-07-13T12:39:20;23.15;52.72
75217;HTU21D;63800;51.972;5.682;2023-07-13T12:41:49;23.67;54.12
75217;HTU21D;63800;51.972;5.682;2023-07-13T12:44:18;24.05;51.20
75217;HTU21D;63800;51.972;5.682;2023-07-13T12:47:03;23.89;49.19
75217;HTU21D;63800;51.972;5.682;2023-07-13T12:49:31;24.16;49.37
75217;HTU21D;63800;51.972;5.682;2023-07-13T12:52:02;24.17;50.37
75217;HTU21D;63800;51.972;5.682;2023-07-13T12:54:29;23.90;52.42
75217;HTU21D;63800;51.972;5.682;2023-07-13T12:56:55;22.55;53.97
75217;HTU21D;63800;51.972;5.682;2023-07-13T12:59:25;22.95;54.97
75217;HTU21D;63800;51.972;5.682;2023-07-13T13:01:53;24.17;52.04
75217;HTU21D;63800;51.972;5.682;2023-07-13T13:04:20;24.87;51.03
75217;HTU21D;63800;51.972;5.682;2023-07-13T13:06:47;23.16;51.36
75217;HTU21D;63800;51.972;5.682;2023-07-13T13:09:15;23.89;50.52
75217;HTU21D;63800;51.972;5.682;2023-07-13T13:11:41;24.90;50.66
75217;HTU21D;63800;51.972;5.682;2023-07-13T13:14:07;25.65;50.82
75217;HTU21D;63800;51.972;5.682;2023-07-13T13:16:35;25.78;50.81
75217;HTU21D;63800;51.972;5.682;2023-07-13T13:19:13;25.79;45.83
75217;HTU21D;63800;51.972;5.682;2023-07-13T13:21:39;25.78;46.64
75217;HTU21D;63800;51.972;5.682;2023-07-13T13:24:14;25.56;45.79
75217;HTU21D;63800;51.972;5.682;2023-07-13T13:26:41;25.52;45.93
75217;HTU21D;63800;51.972;5.682;2023-07-13T13:29:15;25.54;46.51
75217;HTU21D;63800;51.972;5.682;2023-07-13T13:31:41;24.82;47.54
75217;HTU21D;63800;51.972;5.682;2023-07-13T13:34:12;24.68;48.66
75217;HTU21D;63800;51.972;5.682;2023-07-13T13:36:38;25.39;47.79
75217;HTU21D;63800;51.972;5.682;2023-07-13T13:39:18;25.27;45.70
75217;HTU21D;63800;51.972;5.682;2023-07-13T13:41:45;25.34;48.04
75217;HTU21D;63800;51.972;5.682;2023-07-13T13:44:12;25.80;48.92
75217;HTU21D;63800;51.972;5.682;2023-07-13T13:46:37;25.27;49.41
75217;HTU21D;63800;51.972;5.682;2023-07-13T13:49:03;24.97;47.76
75217;HTU21D;63800;51.972;5.682;2023-07-13T13:51:28;25.51;48.89
75217;HTU21D;63800;51.972;5.682;2023-07-13T13:53:54;25.44;48.57
75217;HTU21D;63800;51.972;5.682;2023-07-13T13:56:21;25.42;47.47
75217;HTU21D;63800;51.972;5.682;2023-07-13T13:58:46;25.86;49.47
75217;HTU21D;63800;51.972;5.682;2023-07-13T14:01:14;25.67;47.49
75217;HTU21D;63800;51.972;5.682;2023-07-13T14:03:41;24.77;48.53
75217;HTU21D;63800;51.972;5.682;2023-07-13T14:06:11;24.97;48.70
75217;HTU21D;63800;51.972;5.682;2023-07-13T14:08:37;24.39;50.25
75217;HTU21D;63800;51.972;5.682;2023-07-13T14:11:03;24.21;48.76
75217;HTU21D;63800;51.972;5.682;2023-07-13T14:13:34;24.99;50.50
75217;HTU21D;63800;51.972;5.682;2023-07-13T14:16:01;25.15;45.78
75217;HTU21D;63800;51.972;5.682;2023-07-13T14:18:26;25.39;45.13
75217;HTU21D;63800;51.972;5.682;2023-07-13T14:20:53;25.06;46.28
75217;HTU21D;63800;51.972;5.682;2023-07-13T14:23:18;24.43;46.28
75217;HTU21D;63800;51.972;5.682;2023-07-13T14:25:46;25.08;47.87
75217;HTU21D;63800;51.972;5.682;2023-07-13T14:28:23;25.14;47.74
75217;HTU21D;63800;51.972;5.682;2023-07-13T14:30:50;25.05;50.66
75217;HTU21D;63800;51.972;5.682;2023-07-13T14:33:15;24.34;48.32
75217;HTU21D;63800;51.972;5.682;2023-07-13T14:35:41;23.71;49.20
75217;HTU21D;63800;51.972;5.682;2023-07-13T14:38:10;23.54;50.53
75217;HTU21D;63800;51.972;5.682;2023-07-13T14:40:37;23.41;50.08
75217;HTU21D;63800;51.972;5.682;2023-07-13T14:43:03;24.02;49.24
75217;HTU21D;63800;51.972;5.682;2023-07-13T14:45:30;23.99;50.63
75217;HTU21D;63800;51.972;5.682;2023-07-13T14:47:56;23.85;50.07
75217;HTU21D;63800;51.972;5.682;2023-07-13T14:50:32;23.67;49.63
75217;HTU21D;63800;51.972;5.682;2023-07-13T14:52:58;23.50;51.59
75217;HTU21D;63800;51.972;5.682;2023-07-13T14:55:23;23.20;50.14
75217;HTU21D;63800;51.972;5.682;2023-07-13T14:57:51;23.00;50.05
75217;HTU21D;63800;51.972;5.682;2023-07-13T15:00:21;23.30;50.78
75217;HTU21D;63800;51.972;5.682;2023-07-13T15:02:53;23.28;51.64
75217;HTU21D;63800;51.972;5.682;2023-07-13T15:05:25;23.24;51.91
75217;HTU21D;63800;51.972;5.682;2023-07-13T15:07:52;23.26;51.50
75217;HTU21D;63800;51.972;5.682;2023-07-13T15:10:23;23.13;50.38
75217;HTU21D;63800;51.972;5.682;2023-07-13T15:12:58;23.09;51.17
75217;HTU21D;63800;51.972;5.682;2023-07-13T15:15:24;22.85;51.04
75217;HTU21D;63800;51.972;5.682;2023-07-13T15:17:49;22.68;51.49
75217;HTU21D;63800;51.972;5.682;2023-07-13T15:20:31;22.35;51.37
75217;HTU21D;63800;51.972;5.682;2023-07-13T15:22:58;22.67;51.54
75217;HTU21D;63800;51.972;5.682;2023-07-13T15:25:26;22.32;52.20
75217;HTU21D;63800;51.972;5.682;2023-07-13T15:27:55;22.11;52.58
75217;HTU21D;63800;51.972;5.682;2023-07-13T15:30:22;21.88;52.82
75217;HTU21D;63800;51.972;5.682;2023-07-13T15:32:48;21.63;53.26
75217;HTU21D;63800;51.972;5.682;2023-07-13T15:35:20;21.93;53.20
75217;HTU21D;63800;51.972;5.682;2023-07-13T15:37:47;22.02;53.46
75217;HTU21D;63800;51.972;5.682;2023-07-13T15:40:13;22.05;53.17
75217;HTU21D;63800;51.972;5.682;2023-07-13T15:42:41;22.14;53.56
75217;HTU21D;63800;51.972;5.682;2023-07-13T15:45:25;22.21;52.88
75217;HTU21D;63800;51.972;5.682;2023-07-13T15:47:51;22.55;52.20
75217;HTU21D;63800;51.972;5.682;2023-07-13T15:50:19;22.68;53.23
75217;HTU21D;63800;51.972;5.682;2023-07-13T15:52:47;21.80;58.87
75217;HTU21D;63800;51.972;5.682;2023-07-13T15:55:14;21.76;59.50
75217;HTU21D;63800;51.972;5.682;2023-07-13T15:57:43;21.62;60.88
75217;HTU21D;63800;51.972;5.682;2023-07-13T16:00:18;21.62;60.35
75217;HTU21D;63800;51.972;5.682;2023-07-13T16:02:45;22.18;59.40
75217;HTU21D;63800;51.972;5.682;2023-07-13T16:05:11;22.21;59.43